sensor_id;sensor_type;location;lat;lon;timestamp;P1;durP1;ratioP1;P2;durP2;ratioP2
69943;SDS011;57257;48.408;-4.498;2023-07-02T00:01:27;25.50;;;21.00;;
69943;SDS011;57257;48.408;-4.498;2023-07-02T00:03:52;16.25;;;15.75;;
69943;SDS011;57257;48.408;-4.498;2023-07-02T00:06:18;14.00;;;14.00;;
69943;SDS011;57257;48.408;-4.498;2023-07-02T00:08:43;19.00;;;14.25;;
69943;SDS011;57257;48.408;-4.498;2023-07-02T00:11:08;20.75;;;17.00;;
69943;SDS011;57257;48.408;-4.498;2023-07-02T00:13:37;18.00;;;16.75;;
69943;SDS011;57257;48.408;-4.498;2023-07-02T00:16:03;19.50;;;14.50;;
69943;SDS011;57257;48.408;-4.498;2023-07-02T00:18:29;23.00;;;16.00;;
69943;SDS011;57257;48.408;-4.498;2023-07-02T00:20:59;21.00;;;18.75;;
69943;SDS011;57257;48.408;-4.498;2023-07-02T00:23:26;19.25;;;18.00;;
69943;SDS011;57257;48.408;-4.498;2023-07-02T00:25:51;22.25;;;15.50;;
69943;SDS011;57257;48.408;-4.498;2023-07-02T00:28:16;21.50;;;20.25;;
69943;SDS011;57257;48.408;-4.498;2023-07-02T00:30:42;17.50;;;15.00;;
69943;SDS011;57257;48.408;-4.498;2023-07-02T00:33:08;21.50;;;15.75;;
69943;SDS011;57257;48.408;-4.498;2023-07-02T00:35:33;17.50;;;13.00;;
69943;SDS011;57257;48.408;-4.498;2023-07-02T00:37:58;12.75;;;10.50;;
69943;SDS011;57257;48.408;-4.498;2023-07-02T00:40:24;18.00;;;17.00;;
69943;SDS011;57257;48.408;-4.498;2023-07-02T00:42:52;15.00;;;14.50;;
69943;SDS011;57257;48.408;-4.498;2023-07-02T00:45:17;17.00;;;13.50;;
69943;SDS011;57257;48.408;-4.498;2023-07-02T00:47:43;17.50;;;13.00;;
69943;SDS011;57257;48.408;-4.498;2023-07-02T00:50:10;17.00;;;13.00;;
69943;SDS011;57257;48.408;-4.498;2023-07-02T00:52:36;14.00;;;11.00;;
69943;SDS011;57257;48.408;-4.498;2023-07-02T00:55:02;14.75;;;11.25;;
69943;SDS011;57257;48.408;-4.498;2023-07-02T00:57:27;16.50;;;13.00;;
69943;SDS011;57257;48.408;-4.498;2023-07-02T00:59:55;15.00;;;11.50;;
69943;SDS011;57257;48.408;-4.498;2023-07-02T01:02:27;13.00;;;12.25;;
69943;SDS011;57257;48.408;-4.498;2023-07-02T01:04:54;16.75;;;16.75;;
69943;SDS011;57257;48.408;-4.498;2023-07-02T01:07:23;24.50;;;20.00;;
69943;SDS011;57257;48.408;-4.498;2023-07-02T01:09:49;38.75;;;29.25;;
69943;SDS011;57257;48.408;-4.498;2023-07-02T01:12:14;50.25;;;37.50;;
69943;SDS011;57257;48.408;-4.498;2023-07-02T01:14:44;22.75;;;21.00;;
69943;SDS011;57257;48.408;-4.498;2023-07-02T01:17:15;18.00;;;13.00;;
69943;SDS011;57257;48.408;-4.498;2023-07-02T01:19:51;92.50;;;72.25;;
69943;SDS011;57257;48.408;-4.498;2023-07-02T01:22:21;87.50;;;66.25;;
69943;SDS011;57257;48.408;-4.498;2023-07-02T01:24:49;124.50;;;102.75;;
69943;SDS011;57257;48.408;-4.498;2023-07-02T01:27:15;27.25;;;22.00;;
69943;SDS011;57257;48.408;-4.498;2023-07-02T01:29:41;17.00;;;17.00;;
69943;SDS011;57257;48.408;-4.498;2023-07-02T01:32:07;18.75;;;15.00;;
69943;SDS011;57257;48.408;-4.498;2023-07-02T01:34:36;18.00;;;16.00;;
69943;SDS011;57257;48.408;-4.498;2023-07-02T01:37:02;30.75;;;28.25;;
69943;SDS011;57257;48.408;-4.498;2023-07-02T01:39:29;35.50;;;30.75;;
69943;SDS011;57257;48.408;-4.498;2023-07-02T01:41:55;30.50;;;29.00;;
69943;SDS011;57257;48.408;-4.498;2023-07-02T01:44:31;23.25;;;20.00;;
69943;SDS011;57257;48.408;-4.498;2023-07-02T01:46:57;31.25;;;27.50;;
69943;SDS011;57257;48.408;-4.498;2023-07-02T01:49:23;27.50;;;18.25;;
69943;SDS011;57257;48.408;-4.498;2023-07-02T01:51:50;12.50;;;8.00;;
69943;SDS011;57257;48.408;-4.498;2023-07-02T01:54:16;3.50;;;2.75;;
69943;SDS011;57257;48.408;-4.498;2023-07-02T01:56:42;41.75;;;38.00;;
69943;SDS011;57257;48.408;-4.498;2023-07-02T01:59:07;26.75;;;23.00;;
69943;SDS011;57257;48.408;-4.498;2023-07-02T02:01:33;29.50;;;22.75;;
69943;SDS011;57257;48.408;-4.498;2023-07-02T02:03:59;16.25;;;14.75;;
69943;SDS011;57257;48.408;-4.498;2023-07-02T02:06:24;13.25;;;11.25;;
69943;SDS011;57257;48.408;-4.498;2023-07-02T02:08:50;18.00;;;17.00;;
69943;SDS011;57257;48.408;-4.498;2023-07-02T02:11:15;20.25;;;12.50;;
69943;SDS011;57257;48.408;-4.498;2023-07-02T02:13:41;11.50;;;11.50;;
69943;SDS011;57257;48.408;-4.498;2023-07-02T02:16:06;21.50;;;13.50;;
69943;SDS011;57257;48.408;-4.498;2023-07-02T02:18:31;18.25;;;15.50;;
69943;SDS011;57257;48.408;-4.498;2023-07-02T02:20:57;23.50;;;14.75;;
69943;SDS011;57257;48.408;-4.498;2023-07-02T02:23:22;14.75;;;10.00;;
69943;SDS011;57257;48.408;-4.498;2023-07-02T02:25:48;9.75;;;9.75;;
69943;SDS011;57257;48.408;-4.498;2023-07-02T02:28:13;10.50;;;10.00;;
69943;SDS011;57257;48.408;-4.498;2023-07-02T02:30:39;14.25;;;9.25;;
69943;SDS011;57257;48.408;-4.498;2023-07-02T02:33:04;18.50;;;10.50;;
69943;SDS011;57257;48.408;-4.498;2023-07-02T02:35:29;15.00;;;13.75;;
69943;SDS011;57257;48.408;-4.498;2023-07-02T02:37:55;15.75;;;12.50;;
69943;SDS011;57257;48.408;-4.498;2023-07-02T02:40:20;22.75;;;15.00;;
69943;SDS011;57257;48.408;-4.498;2023-07-02T02:42:45;14.75;;;9.50;;
69943;SDS011;57257;48.408;-4.498;2023-07-02T02:45:11;12.25;;;12.25;;
69943;SDS011;57257;48.408;-4.498;2023-07-02T02:47:36;13.25;;;12.00;;
69943;SDS011;57257;48.408;-4.498;2023-07-02T02:50:02;9.25;;;8.00;;
69943;SDS011;57257;48.408;-4.498;2023-07-02T02:52:28;9.00;;;6.75;;
69943;SDS011;57257;48.408;-4.498;2023-07-02T02:54:53;10.75;;;7.25;;
69943;SDS011;57257;48.408;-4.498;2023-07-02T02:57:18;12.75;;;10.00;;
69943;SDS011;57257;48.408;-4.498;2023-07-02T02:59:44;16.25;;;12.50;;
69943;SDS011;57257;48.408;-4.498;2023-07-02T03:02:09;15.75;;;15.25;;
69943;SDS011;57257;48.408;-4.498;2023-07-02T03:04:35;11.00;;;9.00;;
69943;SDS011;57257;48.408;-4.498;2023-07-02T03:07:05;15.75;;;12.00;;
69943;SDS011;57257;48.408;-4.498;2023-07-02T03:09:32;11.75;;;10.00;;
69943;SDS011;57257;48.408;-4.498;2023-07-02T03:11:57;10.25;;;9.50;;
69943;SDS011;57257;48.408;-4.498;2023-07-02T03:14:23;13.00;;;10.00;;
69943;SDS011;57257;48.408;-4.498;2023-07-02T03:16:48;21.50;;;19.75;;
69943;SDS011;57257;48.408;-4.498;2023-07-02T03:19:14;18.50;;;15.50;;
69943;SDS011;57257;48.408;-4.498;2023-07-02T03:21:41;27.25;;;22.50;;
69943;SDS011;57257;48.408;-4.498;2023-07-02T03:24:08;23.75;;;18.75;;
69943;SDS011;57257;48.408;-4.498;2023-07-02T03:26:36;19.50;;;15.00;;
69943;SDS011;57257;48.408;-4.498;2023-07-02T03:29:02;25.50;;;17.25;;
69943;SDS011;57257;48.408;-4.498;2023-07-02T03:31:27;9.50;;;9.25;;
69943;SDS011;57257;48.408;-4.498;2023-07-02T03:33:53;11.00;;;8.00;;
69943;SDS011;57257;48.408;-4.498;2023-07-02T03:36:18;16.00;;;9.00;;
69943;SDS011;57257;48.408;-4.498;2023-07-02T03:38:44;15.00;;;11.00;;
69943;SDS011;57257;48.408;-4.498;2023-07-02T03:41:09;9.75;;;8.50;;
69943;SDS011;57257;48.408;-4.498;2023-07-02T03:43:34;9.25;;;6.25;;
69943;SDS011;57257;48.408;-4.498;2023-07-02T03:46:00;14.25;;;10.50;;
69943;SDS011;57257;48.408;-4.498;2023-07-02T03:48:25;13.50;;;9.00;;
69943;SDS011;57257;48.408;-4.498;2023-07-02T03:50:51;22.00;;;11.75;;
69943;SDS011;57257;48.408;-4.498;2023-07-02T03:53:16;15.75;;;12.25;;
69943;SDS011;57257;48.408;-4.498;2023-07-02T03:55:42;10.75;;;7.75;;
69943;SDS011;57257;48.408;-4.498;2023-07-02T03:58:07;11.25;;;8.00;;
69943;SDS011;57257;48.408;-4.498;2023-07-02T04:00:32;10.00;;;7.50;;
69943;SDS011;57257;48.408;-4.498;2023-07-02T04:02:58;16.00;;;9.50;;
69943;SDS011;57257;48.408;-4.498;2023-07-02T04:05:23;10.00;;;10.00;;
69943;SDS011;57257;48.408;-4.498;2023-07-02T04:07:48;13.50;;;9.25;;
69943;SDS011;57257;48.408;-4.498;2023-07-02T04:10:14;15.00;;;14.00;;
69943;SDS011;57257;48.408;-4.498;2023-07-02T04:12:39;14.75;;;10.75;;
69943;SDS011;57257;48.408;-4.498;2023-07-02T04:15:05;11.25;;;9.25;;
69943;SDS011;57257;48.408;-4.498;2023-07-02T04:17:31;24.50;;;13.25;;
69943;SDS011;57257;48.408;-4.498;2023-07-02T04:19:56;11.50;;;9.00;;
69943;SDS011;57257;48.408;-4.498;2023-07-02T04:22:22;9.25;;;9.25;;
69943;SDS011;57257;48.408;-4.498;2023-07-02T04:24:48;18.00;;;12.00;;
69943;SDS011;57257;48.408;-4.498;2023-07-02T04:27:14;4.25;;;4.25;;
69943;SDS011;57257;48.408;-4.498;2023-07-02T04:29:42;15.50;;;12.75;;
69943;SDS011;57257;48.408;-4.498;2023-07-02T04:32:08;11.50;;;8.50;;
69943;SDS011;57257;48.408;-4.498;2023-07-02T04:34:33;12.75;;;12.00;;
69943;SDS011;57257;48.408;-4.498;2023-07-02T04:37:01;15.00;;;11.50;;
69943;SDS011;57257;48.408;-4.498;2023-07-02T04:39:27;6.75;;;6.50;;
69943;SDS011;57257;48.408;-4.498;2023-07-02T04:41:53;12.25;;;9.25;;
69943;SDS011;57257;48.408;-4.498;2023-07-02T04:44:18;14.75;;;9.00;;
69943;SDS011;57257;48.408;-4.498;2023-07-02T04:46:45;12.25;;;9.50;;
69943;SDS011;57257;48.408;-4.498;2023-07-02T04:49:11;11.25;;;9.50;;
69943;SDS011;57257;48.408;-4.498;2023-07-02T04:51:36;8.75;;;6.50;;
69943;SDS011;57257;48.408;-4.498;2023-07-02T04:54:02;7.50;;;6.00;;
69943;SDS011;57257;48.408;-4.498;2023-07-02T04:56:27;3.50;;;3.50;;
69943;SDS011;57257;48.408;-4.498;2023-07-02T04:58:52;2.00;;;1.00;;
69943;SDS011;57257;48.408;-4.498;2023-07-02T05:01:18;12.75;;;10.00;;
69943;SDS011;57257;48.408;-4.498;2023-07-02T05:03:43;9.00;;;5.50;;
69943;SDS011;57257;48.408;-4.498;2023-07-02T05:06:09;9.00;;;7.00;;
69943;SDS011;57257;48.408;-4.498;2023-07-02T05:08:34;6.50;;;6.50;;
69943;SDS011;57257;48.408;-4.498;2023-07-02T05:11:01;11.00;;;8.00;;
69943;SDS011;57257;48.408;-4.498;2023-07-02T05:13:26;8.75;;;8.50;;
69943;SDS011;57257;48.408;-4.498;2023-07-02T05:15:52;7.00;;;6.25;;
69943;SDS011;57257;48.408;-4.498;2023-07-02T05:18:17;16.75;;;9.00;;
69943;SDS011;57257;48.408;-4.498;2023-07-02T05:20:43;7.50;;;7.50;;
69943;SDS011;57257;48.408;-4.498;2023-07-02T05:23:08;10.50;;;9.25;;
69943;SDS011;57257;48.408;-4.498;2023-07-02T05:25:33;10.00;;;6.50;;
69943;SDS011;57257;48.408;-4.498;2023-07-02T05:27:59;10.50;;;8.50;;
69943;SDS011;57257;48.408;-4.498;2023-07-02T05:30:24;9.00;;;9.00;;
69943;SDS011;57257;48.408;-4.498;2023-07-02T05:32:49;11.25;;;8.25;;
69943;SDS011;57257;48.408;-4.498;2023-07-02T05:35:15;13.00;;;6.75;;
69943;SDS011;57257;48.408;-4.498;2023-07-02T05:37:40;10.00;;;9.00;;
69943;SDS011;57257;48.408;-4.498;2023-07-02T05:40:06;9.00;;;7.00;;
69943;SDS011;57257;48.408;-4.498;2023-07-02T05:42:32;13.50;;;6.25;;
69943;SDS011;57257;48.408;-4.498;2023-07-02T05:44:57;7.00;;;7.00;;
69943;SDS011;57257;48.408;-4.498;2023-07-02T05:47:22;13.25;;;12.25;;
69943;SDS011;57257;48.408;-4.498;2023-07-02T05:49:48;9.00;;;7.00;;
69943;SDS011;57257;48.408;-4.498;2023-07-02T05:52:13;13.00;;;7.25;;
69943;SDS011;57257;48.408;-4.498;2023-07-02T05:54:39;8.75;;;6.00;;
69943;SDS011;57257;48.408;-4.498;2023-07-02T05:57:06;11.50;;;9.75;;
69943;SDS011;57257;48.408;-4.498;2023-07-02T05:59:31;13.50;;;6.75;;
69943;SDS011;57257;48.408;-4.498;2023-07-02T06:01:56;8.00;;;6.75;;
69943;SDS011;57257;48.408;-4.498;2023-07-02T06:04:22;10.00;;;4.00;;
69943;SDS011;57257;48.408;-4.498;2023-07-02T06:06:47;12.00;;;7.00;;
69943;SDS011;57257;48.408;-4.498;2023-07-02T06:09:13;14.50;;;8.50;;
69943;SDS011;57257;48.408;-4.498;2023-07-02T06:11:38;13.25;;;8.50;;
69943;SDS011;57257;48.408;-4.498;2023-07-02T06:14:03;7.00;;;6.25;;
69943;SDS011;57257;48.408;-4.498;2023-07-02T06:16:29;8.75;;;8.25;;
69943;SDS011;57257;48.408;-4.498;2023-07-02T06:18:54;14.25;;;7.00;;
69943;SDS011;57257;48.408;-4.498;2023-07-02T06:21:19;11.00;;;6.00;;
69943;SDS011;57257;48.408;-4.498;2023-07-02T06:23:46;9.50;;;8.00;;
69943;SDS011;57257;48.408;-4.498;2023-07-02T06:26:11;7.00;;;6.25;;
69943;SDS011;57257;48.408;-4.498;2023-07-02T06:28:38;7.00;;;6.00;;
69943;SDS011;57257;48.408;-4.498;2023-07-02T06:31:03;5.25;;;4.50;;
69943;SDS011;57257;48.408;-4.498;2023-07-02T06:33:29;10.25;;;5.50;;
69943;SDS011;57257;48.408;-4.498;2023-07-02T06:35:54;6.00;;;4.00;;
69943;SDS011;57257;48.408;-4.498;2023-07-02T06:38:20;9.50;;;6.25;;
69943;SDS011;57257;48.408;-4.498;2023-07-02T06:40:45;6.00;;;5.50;;
69943;SDS011;57257;48.408;-4.498;2023-07-02T06:43:10;6.75;;;6.00;;
69943;SDS011;57257;48.408;-4.498;2023-07-02T06:45:36;8.25;;;7.00;;
69943;SDS011;57257;48.408;-4.498;2023-07-02T06:48:01;7.50;;;4.00;;
69943;SDS011;57257;48.408;-4.498;2023-07-02T06:50:27;7.00;;;7.00;;
69943;SDS011;57257;48.408;-4.498;2023-07-02T06:52:52;8.00;;;6.00;;
69943;SDS011;57257;48.408;-4.498;2023-07-02T06:55:17;10.25;;;6.25;;
69943;SDS011;57257;48.408;-4.498;2023-07-02T06:57:43;10.00;;;6.00;;
69943;SDS011;57257;48.408;-4.498;2023-07-02T07:00:10;8.50;;;3.00;;
69943;SDS011;57257;48.408;-4.498;2023-07-02T07:02:37;6.75;;;6.00;;
69943;SDS011;57257;48.408;-4.498;2023-07-02T07:05:02;12.25;;;5.50;;
69943;SDS011;57257;48.408;-4.498;2023-07-02T07:07:29;8.00;;;4.00;;
69943;SDS011;57257;48.408;-4.498;2023-07-02T07:09:54;9.00;;;7.50;;
69943;SDS011;57257;48.408;-4.498;2023-07-02T07:12:20;5.00;;;5.00;;
69943;SDS011;57257;48.408;-4.498;2023-07-02T07:14:45;11.50;;;7.50;;
69943;SDS011;57257;48.408;-4.498;2023-07-02T07:17:11;11.00;;;6.25;;
69943;SDS011;57257;48.408;-4.498;2023-07-02T07:19:36;7.75;;;6.25;;
69943;SDS011;57257;48.408;-4.498;2023-07-02T07:22:02;6.25;;;6.25;;
69943;SDS011;57257;48.408;-4.498;2023-07-02T07:24:27;6.75;;;6.75;;
69943;SDS011;57257;48.408;-4.498;2023-07-02T07:26:53;10.00;;;8.50;;
69943;SDS011;57257;48.408;-4.498;2023-07-02T07:29:18;9.25;;;7.00;;
69943;SDS011;57257;48.408;-4.498;2023-07-02T07:31:43;10.75;;;8.75;;
69943;SDS011;57257;48.408;-4.498;2023-07-02T07:34:09;14.50;;;7.50;;
69943;SDS011;57257;48.408;-4.498;2023-07-02T07:36:34;9.25;;;7.50;;
69943;SDS011;57257;48.408;-4.498;2023-07-02T07:39:00;9.00;;;7.00;;
69943;SDS011;57257;48.408;-4.498;2023-07-02T07:41:25;8.50;;;7.50;;
69943;SDS011;57257;48.408;-4.498;2023-07-02T07:43:51;9.25;;;6.00;;
69943;SDS011;57257;48.408;-4.498;2023-07-02T07:46:16;14.50;;;7.50;;
69943;SDS011;57257;48.408;-4.498;2023-07-02T07:48:42;12.00;;;7.50;;
69943;SDS011;57257;48.408;-4.498;2023-07-02T07:51:07;9.00;;;7.00;;
69943;SDS011;57257;48.408;-4.498;2023-07-02T07:53:32;10.50;;;7.00;;
69943;SDS011;57257;48.408;-4.498;2023-07-02T07:55:58;8.00;;;8.00;;
69943;SDS011;57257;48.408;-4.498;2023-07-02T07:58:23;9.50;;;9.00;;
69943;SDS011;57257;48.408;-4.498;2023-07-02T08:00:49;6.25;;;6.25;;
69943;SDS011;57257;48.408;-4.498;2023-07-02T08:03:14;12.25;;;6.25;;
69943;SDS011;57257;48.408;-4.498;2023-07-02T08:05:40;9.25;;;9.00;;
69943;SDS011;57257;48.408;-4.498;2023-07-02T08:08:05;5.75;;;4.50;;
69943;SDS011;57257;48.408;-4.498;2023-07-02T08:10:31;12.50;;;8.00;;
69943;SDS011;57257;48.408;-4.498;2023-07-02T08:12:56;10.75;;;9.25;;
69943;SDS011;57257;48.408;-4.498;2023-07-02T08:15:21;9.75;;;6.00;;
69943;SDS011;57257;48.408;-4.498;2023-07-02T08:17:47;9.25;;;4.00;;
69943;SDS011;57257;48.408;-4.498;2023-07-02T08:20:13;8.00;;;5.50;;
69943;SDS011;57257;48.408;-4.498;2023-07-02T08:22:39;7.00;;;7.00;;
69943;SDS011;57257;48.408;-4.498;2023-07-02T08:25:05;11.50;;;7.00;;
69943;SDS011;57257;48.408;-4.498;2023-07-02T08:27:31;16.25;;;8.00;;
69943;SDS011;57257;48.408;-4.498;2023-07-02T08:29:56;13.00;;;8.50;;
69943;SDS011;57257;48.408;-4.498;2023-07-02T08:32:22;14.75;;;9.25;;
69943;SDS011;57257;48.408;-4.498;2023-07-02T08:34:47;8.00;;;7.00;;
69943;SDS011;57257;48.408;-4.498;2023-07-02T08:37:12;6.00;;;6.00;;
69943;SDS011;57257;48.408;-4.498;2023-07-02T08:39:38;9.00;;;6.00;;
69943;SDS011;57257;48.408;-4.498;2023-07-02T08:42:07;10.50;;;8.50;;
69943;SDS011;57257;48.408;-4.498;2023-07-02T08:44:33;9.00;;;6.00;;
69943;SDS011;57257;48.408;-4.498;2023-07-02T08:46:58;8.75;;;7.50;;
69943;SDS011;57257;48.408;-4.498;2023-07-02T08:49:24;8.50;;;7.00;;
69943;SDS011;57257;48.408;-4.498;2023-07-02T08:51:50;13.50;;;9.50;;
69943;SDS011;57257;48.408;-4.498;2023-07-02T08:54:16;6.75;;;4.00;;
69943;SDS011;57257;48.408;-4.498;2023-07-02T08:56:42;10.00;;;8.00;;
69943;SDS011;57257;48.408;-4.498;2023-07-02T08:59:10;9.50;;;9.50;;
69943;SDS011;57257;48.408;-4.498;2023-07-02T09:01:49;6.00;;;6.00;;
69943;SDS011;57257;48.408;-4.498;2023-07-02T09:04:20;7.50;;;7.50;;
69943;SDS011;57257;48.408;-4.498;2023-07-02T09:06:49;12.50;;;10.00;;
69943;SDS011;57257;48.408;-4.498;2023-07-02T09:09:16;8.50;;;6.00;;
69943;SDS011;57257;48.408;-4.498;2023-07-02T09:11:48;4.00;;;4.00;;
69943;SDS011;57257;48.408;-4.498;2023-07-02T09:14:24;11.00;;;6.25;;
69943;SDS011;57257;48.408;-4.498;2023-07-02T09:17:00;12.00;;;7.00;;
69943;SDS011;57257;48.408;-4.498;2023-07-02T09:19:34;6.00;;;6.00;;
69943;SDS011;57257;48.408;-4.498;2023-07-02T09:22:00;6.75;;;6.00;;
69943;SDS011;57257;48.408;-4.498;2023-07-02T09:24:27;9.50;;;7.00;;
69943;SDS011;57257;48.408;-4.498;2023-07-02T09:26:55;12.25;;;6.50;;
69943;SDS011;57257;48.408;-4.498;2023-07-02T09:29:22;12.75;;;10.25;;
69943;SDS011;57257;48.408;-4.498;2023-07-02T09:31:49;9.50;;;6.00;;
69943;SDS011;57257;48.408;-4.498;2023-07-02T09:34:15;10.50;;;10.50;;
69943;SDS011;57257;48.408;-4.498;2023-07-02T09:36:41;6.00;;;4.00;;
69943;SDS011;57257;48.408;-4.498;2023-07-02T09:39:29;10.00;;;9.00;;
69943;SDS011;57257;48.408;-4.498;2023-07-02T09:42:01;10.75;;;9.00;;
69943;SDS011;57257;48.408;-4.498;2023-07-02T09:44:30;8.00;;;6.25;;
69943;SDS011;57257;48.408;-4.498;2023-07-02T09:47:03;9.50;;;8.00;;
69943;SDS011;57257;48.408;-4.498;2023-07-02T09:49:33;13.75;;;9.00;;
69943;SDS011;57257;48.408;-4.498;2023-07-02T09:52:18;3.50;;;3.50;;
69943;SDS011;57257;48.408;-4.498;2023-07-02T09:54:45;14.25;;;10.75;;
69943;SDS011;57257;48.408;-4.498;2023-07-02T09:57:10;5.50;;;2.75;;
69943;SDS011;57257;48.408;-4.498;2023-07-02T09:59:37;7.00;;;6.00;;
69943;SDS011;57257;48.408;-4.498;2023-07-02T10:02:03;7.00;;;4.00;;
69943;SDS011;57257;48.408;-4.498;2023-07-02T10:04:38;8.00;;;6.50;;
69943;SDS011;57257;48.408;-4.498;2023-07-02T10:07:08;6.00;;;5.00;;
69943;SDS011;57257;48.408;-4.498;2023-07-02T10:09:38;13.75;;;7.00;;
69943;SDS011;57257;48.408;-4.498;2023-07-02T10:14:51;6.75;;;4.00;;
69943;SDS011;57257;48.408;-4.498;2023-07-02T10:17:33;8.75;;;6.00;;
69943;SDS011;57257;48.408;-4.498;2023-07-02T10:20:04;7.25;;;4.00;;
69943;SDS011;57257;48.408;-4.498;2023-07-02T10:22:49;11.25;;;9.25;;
69943;SDS011;57257;48.408;-4.498;2023-07-02T10:25:29;9.00;;;9.00;;
69943;SDS011;57257;48.408;-4.498;2023-07-02T10:27:56;7.00;;;3.25;;
69943;SDS011;57257;48.408;-4.498;2023-07-02T10:30:35;7.25;;;5.25;;
69943;SDS011;57257;48.408;-4.498;2023-07-02T10:33:08;5.75;;;4.50;;
69943;SDS011;57257;48.408;-4.498;2023-07-02T10:35:40;9.00;;;9.00;;
69943;SDS011;57257;48.408;-4.498;2023-07-02T10:40:58;10.00;;;10.00;;
69943;SDS011;57257;48.408;-4.498;2023-07-02T10:43:28;7.00;;;6.50;;
69943;SDS011;57257;48.408;-4.498;2023-07-02T10:45:57;6.50;;;6.00;;
69943;SDS011;57257;48.408;-4.498;2023-07-02T10:48:27;12.75;;;9.00;;
69943;SDS011;57257;48.408;-4.498;2023-07-02T10:50:53;12.25;;;7.50;;
69943;SDS011;57257;48.408;-4.498;2023-07-02T10:53:19;9.75;;;9.50;;
69943;SDS011;57257;48.408;-4.498;2023-07-02T10:55:44;7.00;;;7.00;;
69943;SDS011;57257;48.408;-4.498;2023-07-02T10:58:10;7.00;;;7.00;;
69943;SDS011;57257;48.408;-4.498;2023-07-02T11:01:10;9.25;;;9.25;;
69943;SDS011;57257;48.408;-4.498;2023-07-02T11:03:28;7.25;;;6.75;;
69943;SDS011;57257;48.408;-4.498;2023-07-02T11:05:55;10.50;;;9.00;;
69943;SDS011;57257;48.408;-4.498;2023-07-02T11:08:20;10.00;;;9.50;;
69943;SDS011;57257;48.408;-4.498;2023-07-02T11:10:46;14.50;;;9.50;;
69943;SDS011;57257;48.408;-4.498;2023-07-02T11:13:19;13.00;;;11.50;;
69943;SDS011;57257;48.408;-4.498;2023-07-02T11:15:45;10.00;;;6.25;;
69943;SDS011;57257;48.408;-4.498;2023-07-02T11:18:11;12.00;;;9.00;;
69943;SDS011;57257;48.408;-4.498;2023-07-02T11:20:38;10.50;;;8.50;;
69943;SDS011;57257;48.408;-4.498;2023-07-02T11:23:24;15.25;;;10.50;;
69943;SDS011;57257;48.408;-4.498;2023-07-02T11:25:57;10.75;;;7.50;;
69943;SDS011;57257;48.408;-4.498;2023-07-02T11:28:23;12.75;;;10.00;;
69943;SDS011;57257;48.408;-4.498;2023-07-02T11:30:49;16.50;;;12.50;;
69943;SDS011;57257;48.408;-4.498;2023-07-02T11:33:15;12.50;;;8.50;;
69943;SDS011;57257;48.408;-4.498;2023-07-02T11:35:40;14.25;;;12.25;;
69943;SDS011;57257;48.408;-4.498;2023-07-02T11:38:08;13.00;;;10.00;;
69943;SDS011;57257;48.408;-4.498;2023-07-02T11:40:35;15.25;;;13.25;;
69943;SDS011;57257;48.408;-4.498;2023-07-02T11:43:01;12.25;;;10.50;;
69943;SDS011;57257;48.408;-4.498;2023-07-02T11:45:26;12.75;;;10.50;;
69943;SDS011;57257;48.408;-4.498;2023-07-02T11:47:52;7.75;;;7.00;;
69943;SDS011;57257;48.408;-4.498;2023-07-02T11:50:17;13.50;;;12.50;;
69943;SDS011;57257;48.408;-4.498;2023-07-02T11:52:42;15.25;;;10.00;;
69943;SDS011;57257;48.408;-4.498;2023-07-02T11:55:08;15.75;;;10.50;;
69943;SDS011;57257;48.408;-4.498;2023-07-02T11:57:33;10.00;;;8.00;;
69943;SDS011;57257;48.408;-4.498;2023-07-02T11:59:59;9.50;;;9.50;;
69943;SDS011;57257;48.408;-4.498;2023-07-02T12:02:25;12.25;;;11.00;;
69943;SDS011;57257;48.408;-4.498;2023-07-02T12:04:50;15.00;;;12.00;;
69943;SDS011;57257;48.408;-4.498;2023-07-02T12:07:16;11.50;;;9.75;;
69943;SDS011;57257;48.408;-4.498;2023-07-02T12:09:41;13.50;;;10.00;;
69943;SDS011;57257;48.408;-4.498;2023-07-02T12:12:06;15.75;;;10.25;;
69943;SDS011;57257;48.408;-4.498;2023-07-02T12:14:32;11.50;;;10.75;;
69943;SDS011;57257;48.408;-4.498;2023-07-02T12:16:58;11.50;;;10.75;;
69943;SDS011;57257;48.408;-4.498;2023-07-02T12:19:23;16.25;;;13.75;;
69943;SDS011;57257;48.408;-4.498;2023-07-02T12:21:49;19.00;;;9.00;;
69943;SDS011;57257;48.408;-4.498;2023-07-02T12:24:14;9.75;;;7.25;;
69943;SDS011;57257;48.408;-4.498;2023-07-02T12:26:42;10.50;;;10.50;;
69943;SDS011;57257;48.408;-4.498;2023-07-02T12:29:08;8.50;;;4.00;;
69943;SDS011;57257;48.408;-4.498;2023-07-02T12:31:33;11.50;;;9.00;;
69943;SDS011;57257;48.408;-4.498;2023-07-02T12:33:59;13.00;;;10.00;;
69943;SDS011;57257;48.408;-4.498;2023-07-02T12:36:24;10.00;;;10.00;;
69943;SDS011;57257;48.408;-4.498;2023-07-02T12:38:49;14.00;;;12.25;;
69943;SDS011;57257;48.408;-4.498;2023-07-02T12:41:15;10.25;;;9.75;;
69943;SDS011;57257;48.408;-4.498;2023-07-02T12:43:40;9.50;;;9.50;;
69943;SDS011;57257;48.408;-4.498;2023-07-02T12:46:06;6.25;;;6.00;;
69943;SDS011;57257;48.408;-4.498;2023-07-02T12:48:32;10.00;;;9.00;;
69943;SDS011;57257;48.408;-4.498;2023-07-02T12:50:57;21.25;;;15.25;;
69943;SDS011;57257;48.408;-4.498;2023-07-02T12:53:24;13.25;;;11.00;;
69943;SDS011;57257;48.408;-4.498;2023-07-02T12:55:50;12.00;;;7.50;;
69943;SDS011;57257;48.408;-4.498;2023-07-02T12:58:15;12.00;;;9.25;;
69943;SDS011;57257;48.408;-4.498;2023-07-02T13:00:41;8.75;;;7.00;;
69943;SDS011;57257;48.408;-4.498;2023-07-02T13:03:09;12.00;;;11.00;;
69943;SDS011;57257;48.408;-4.498;2023-07-02T13:05:36;8.75;;;4.00;;
69943;SDS011;57257;48.408;-4.498;2023-07-02T13:08:01;12.50;;;10.00;;
69943;SDS011;57257;48.408;-4.498;2023-07-02T13:10:28;16.50;;;12.25;;
69943;SDS011;57257;48.408;-4.498;2023-07-02T13:12:54;11.75;;;9.25;;
69943;SDS011;57257;48.408;-4.498;2023-07-02T13:15:19;9.25;;;7.50;;
69943;SDS011;57257;48.408;-4.498;2023-07-02T13:17:44;14.50;;;10.00;;
69943;SDS011;57257;48.408;-4.498;2023-07-02T13:20:10;14.75;;;9.75;;
69943;SDS011;57257;48.408;-4.498;2023-07-02T13:22:35;15.25;;;14.00;;
69943;SDS011;57257;48.408;-4.498;2023-07-02T13:25:02;23.00;;;13.00;;
69943;SDS011;57257;48.408;-4.498;2023-07-02T13:27:28;14.00;;;9.50;;
69943;SDS011;57257;48.408;-4.498;2023-07-02T13:29:53;10.50;;;9.00;;
69943;SDS011;57257;48.408;-4.498;2023-07-02T13:32:18;20.75;;;12.50;;
69943;SDS011;57257;48.408;-4.498;2023-07-02T13:34:44;17.50;;;11.25;;
69943;SDS011;57257;48.408;-4.498;2023-07-02T13:37:09;23.50;;;16.25;;
69943;SDS011;57257;48.408;-4.498;2023-07-02T13:39:35;21.25;;;12.00;;
69943;SDS011;57257;48.408;-4.498;2023-07-02T13:42:00;12.75;;;9.25;;
69943;SDS011;57257;48.408;-4.498;2023-07-02T13:44:26;9.50;;;9.00;;
69943;SDS011;57257;48.408;-4.498;2023-07-02T13:46:51;13.00;;;8.50;;
69943;SDS011;57257;48.408;-4.498;2023-07-02T13:49:18;7.50;;;7.50;;
69943;SDS011;57257;48.408;-4.498;2023-07-02T13:51:43;20.50;;;13.50;;
69943;SDS011;57257;48.408;-4.498;2023-07-02T13:54:11;10.00;;;9.50;;
69943;SDS011;57257;48.408;-4.498;2023-07-02T13:56:37;7.00;;;4.00;;
69943;SDS011;57257;48.408;-4.498;2023-07-02T13:59:03;6.75;;;6.75;;
69943;SDS011;57257;48.408;-4.498;2023-07-02T14:01:29;10.00;;;9.00;;
69943;SDS011;57257;48.408;-4.498;2023-07-02T14:03:54;8.25;;;6.25;;
69943;SDS011;57257;48.408;-4.498;2023-07-02T14:06:20;13.00;;;12.00;;
69943;SDS011;57257;48.408;-4.498;2023-07-02T14:08:46;10.00;;;8.00;;
69943;SDS011;57257;48.408;-4.498;2023-07-02T14:11:11;9.50;;;9.00;;
69943;SDS011;57257;48.408;-4.498;2023-07-02T14:13:37;11.25;;;9.50;;
69943;SDS011;57257;48.408;-4.498;2023-07-02T14:16:02;9.75;;;9.75;;
69943;SDS011;57257;48.408;-4.498;2023-07-02T14:18:28;14.00;;;9.25;;
69943;SDS011;57257;48.408;-4.498;2023-07-02T14:20:53;9.75;;;8.50;;
69943;SDS011;57257;48.408;-4.498;2023-07-02T14:23:18;10.00;;;7.50;;